Time;durP1;ratioP1;P1;durP2;ratioP2;P2;SDS_P1;SDS_P2;PMS_P1;PMS_P2;Temp;Humidity;BMP_temperature;BMP_pressure;BME280_temperature;BME280_humidity;BME280_pressure;Samples;Min_cycle;Max_cycle;Signal;HPM_P1;HPM_P2
2021/09/13 00:01:42;;;;;;;0.10;0.10;;;17.00;99.90;;;;;;4993336;28;20084;-76
2021/09/13 00:04:07;;;;;;;0.73;0.47;;;16.90;99.90;;;;;;4992089;28;20030;-76
2021/09/13 00:06:33;;;;;;;0.10;0.10;;;16.90;99.90;;;;;;4992267;28;20030;-76
2021/09/13 00:08:59;;;;;;;0.28;0.17;;;16.90;99.90;;;;;;4993487;28;20538;-76
2021/09/13 00:11:25;;;;;;;0.65;0.25;;;16.90;99.90;;;;;;4992243;28;20493;-76
2021/09/13 00:13:50;;;;;;;0.45;0.25;;;16.90;99.90;;;;;;4992042;28;20033;-76
2021/09/13 00:16:17;;;;;;;0.00;0.00;;;16.80;99.90;;;;;;4993091;28;20117;-76
2021/09/13 00:18:42;;;;;;;2.45;0.93;;;16.90;99.90;;;;;;4993023;28;20027;-76
2021/09/13 00:21:08;;;;;;;0.13;0.13;;;16.90;99.90;;;;;;4993111;28;20022;-76
2021/09/13 00:23:34;;;;;;;0.47;0.47;;;16.90;99.90;;;;;;4993785;28;20085;-76
2021/09/13 00:25:59;;;;;;;0.13;0.13;;;16.90;99.90;;;;;;4993660;28;20023;-76
2021/09/13 00:28:25;;;;;;;0.03;0.03;;;16.90;99.90;;;;;;4993454;28;20053;-76
2021/09/13 00:30:51;;;;;;;0.47;0.30;;;16.90;99.90;;;;;;4992523;28;20105;-76
2021/09/13 00:33:16;;;;;;;3.03;1.08;;;16.80;99.90;;;;;;4991323;28;20030;-76
2021/09/13 00:35:42;;;;;;;0.00;0.00;;;16.80;99.90;;;;;;4993016;28;20023;-76
2021/09/13 00:38:08;;;;;;;0.30;0.30;;;16.80;99.90;;;;;;4993376;28;20428;-76
2021/09/13 00:40:33;;;;;;;0.38;0.38;;;16.80;99.90;;;;;;4992813;28;20509;-76
2021/09/13 00:43:01;;;;;;;0.47;0.30;;;16.80;99.90;;;;;;4993269;28;20038;-76
2021/09/13 00:45:27;;;;;;;0.30;0.30;;;16.80;99.90;;;;;;4993027;28;20034;-76
2021/09/13 00:47:53;;;;;;;0.00;0.00;;;16.80;99.90;;;;;;4991931;28;20038;-76
2021/09/13 00:50:19;;;;;;;0.25;0.25;;;16.80;99.90;;;;;;4991634;28;20370;-76
2021/09/13 00:52:51;;;;;;;0.28;0.10;;;16.80;99.90;;;;;;4993065;28;20038;-76
2021/09/13 00:55:18;;;;;;;0.25;0.17;;;16.80;99.90;;;;;;4993226;28;20105;-76
2021/09/13 00:57:44;;;;;;;0.32;0.32;;;16.70;99.90;;;;;;4992975;28;20073;-76
2021/09/13 01:00:10;;;;;;;1.08;0.20;;;16.70;99.90;;;;;;4992769;28;20046;-76
2021/09/13 01:02:36;;;;;;;0.20;0.10;;;16.70;99.90;;;;;;4993416;28;20061;-76
2021/09/13 01:05:02;;;;;;;0.17;0.17;;;16.60;99.90;;;;;;4992986;28;20517;-76
2021/09/13 01:07:30;;;;;;;0.38;0.38;;;16.60;99.90;;;;;;4993206;28;20054;-76
2021/09/13 01:09:57;;;;;;;0.85;0.20;;;16.50;99.90;;;;;;4989809;28;20031;-76
2021/09/13 01:12:23;;;;;;;0.20;0.20;;;16.50;99.90;;;;;;4990283;28;20034;-76
2021/09/13 01:14:48;;;;;;;0.60;0.28;;;16.40;99.90;;;;;;4991575;28;20142;-76
2021/09/13 01:17:14;;;;;;;0.77;0.25;;;16.40;99.90;;;;;;4991532;28;20031;-76
2021/09/13 01:19:40;;;;;;;0.10;0.10;;;16.40;99.90;;;;;;4991658;28;20394;-76
2021/09/13 01:22:06;;;;;;;2.10;0.43;;;16.40;99.90;;;;;;4992790;28;20085;-76
2021/09/13 01:24:32;;;;;;;0.00;0.00;;;16.50;99.90;;;;;;4992761;28;20034;-76
2021/09/13 01:27:09;;;;;;;0.30;0.10;;;16.60;99.90;;;;;;4992648;28;20545;-76
2021/09/13 01:29:36;;;;;;;0.17;0.17;;;16.60;99.90;;;;;;4992145;28;20041;-76
2021/09/13 01:32:03;;;;;;;0.45;0.45;;;16.60;99.90;;;;;;4994004;28;20473;-76
2021/09/13 01:34:29;;;;;;;1.30;0.17;;;16.60;99.90;;;;;;4996121;28;20022;-76
2021/09/13 01:36:55;;;;;;;0.25;0.20;;;16.60;99.90;;;;;;4995990;28;20030;-76
2021/09/13 01:39:21;;;;;;;0.40;0.40;;;16.60;99.90;;;;;;4995728;28;20669;-76
2021/09/13 01:41:46;;;;;;;0.47;0.20;;;16.60;99.90;;;;;;4996070;28;20501;-76
2021/09/13 01:44:14;;;;;;;0.25;0.25;;;16.60;99.90;;;;;;4996186;28;20050;-76
2021/09/13 01:46:41;;;;;;;0.52;0.50;;;16.60;99.90;;;;;;4996014;28;20126;-75
2021/09/13 01:49:09;;;;;;;0.40;0.40;;;16.60;99.90;;;;;;4995732;28;20569;-76
2021/09/13 01:51:35;;;;;;;1.17;0.65;;;16.60;99.90;;;;;;4994283;28;20437;-76
2021/09/13 01:54:01;;;;;;;0.43;0.32;;;16.50;99.90;;;;;;4995841;28;20027;-76
2021/09/13 01:56:28;;;;;;;2.83;0.95;;;16.50;99.90;;;;;;4996126;28;20037;-76
2021/09/13 01:58:53;;;;;;;0.10;0.10;;;16.50;99.90;;;;;;4995735;28;20030;-76
2021/09/13 02:01:20;;;;;;;2.00;0.50;;;16.50;99.90;;;;;;4994509;28;20605;-76
2021/09/13 02:03:47;;;;;;;2.75;0.60;;;16.50;99.90;;;;;;4995545;28;20031;-76
2021/09/13 02:06:13;;;;;;;0.68;0.65;;;16.50;99.90;;;;;;4994315;28;20485;-76
2021/09/13 02:08:39;;;;;;;0.22;0.22;;;16.50;99.90;;;;;;4996073;28;20033;-76
2021/09/13 02:11:05;;;;;;;0.40;0.40;;;16.50;99.90;;;;;;4994488;28;20386;-76
2021/09/13 02:13:31;;;;;;;0.30;0.30;;;16.50;99.90;;;;;;4995205;28;20038;-76
2021/09/13 02:15:57;;;;;;;1.75;0.22;;;16.50;99.90;;;;;;4995266;28;20026;-76
2021/09/13 02:18:23;;;;;;;0.38;0.32;;;16.50;99.90;;;;;;4995150;28;20030;-76
2021/09/13 02:20:49;;;;;;;1.30;0.73;;;16.50;99.90;;;;;;4995524;28;20033;-76
2021/09/13 02:23:15;;;;;;;0.65;0.45;;;16.50;99.90;;;;;;4993859;28;20031;-76
2021/09/13 02:25:40;;;;;;;0.03;0.03;;;16.50;99.90;;;;;;4994035;28;20031;-76
2021/09/13 02:28:06;;;;;;;0.65;0.55;;;16.60;99.90;;;;;;4993483;28;20034;-76
2021/09/13 02:30:32;;;;;;;0.08;0.08;;;16.60;99.90;;;;;;4993132;28;20126;-76
2021/09/13 02:32:58;;;;;;;0.50;0.28;;;16.50;99.90;;;;;;4994919;28;20070;-76
2021/09/13 02:35:23;;;;;;;0.45;0.15;;;16.50;99.90;;;;;;4995141;28;20033;-76
2021/09/13 02:37:49;;;;;;;0.10;0.10;;;16.50;99.90;;;;;;4993686;28;20098;-75
2021/09/13 02:40:15;;;;;;;0.10;0.10;;;16.50;99.90;;;;;;5003296;28;20026;-76
2021/09/13 02:42:41;;;;;;;0.10;0.10;;;16.50;99.90;;;;;;5014744;28;20112;-76
2021/09/13 02:45:07;;;;;;;0.32;0.32;;;16.50;99.90;;;;;;5012941;28;20053;-76
2021/09/13 02:47:33;;;;;;;0.10;0.10;;;16.50;99.90;;;;;;5013199;28;20042;-76
2021/09/13 02:49:59;;;;;;;0.22;0.22;;;16.50;99.90;;;;;;5014685;28;20065;-75
2021/09/13 02:52:24;;;;;;;0.10;0.10;;;16.50;99.90;;;;;;5012143;28;20098;-76
2021/09/13 02:54:50;;;;;;;0.30;0.20;;;16.50;99.90;;;;;;5014165;28;20397;-76
2021/09/13 02:57:15;;;;;;;1.17;0.90;;;16.50;99.90;;;;;;5013822;28;20092;-76
2021/09/13 02:59:41;;;;;;;0.85;0.40;;;16.50;99.90;;;;;;5010116;28;20027;-76
2021/09/13 03:02:07;;;;;;;1.08;0.40;;;16.50;99.90;;;;;;4994728;28;20034;-76
2021/09/13 03:04:32;;;;;;;0.40;0.40;;;16.50;99.90;;;;;;4994554;28;20110;-76
2021/09/13 03:06:58;;;;;;;0.08;0.08;;;16.40;99.90;;;;;;4994329;28;20034;-76
2021/09/13 03:09:24;;;;;;;2.40;0.38;;;16.40;99.90;;;;;;4994145;28;20026;-76
2021/09/13 03:11:49;;;;;;;0.13;0.13;;;16.40;99.90;;;;;;4993877;28;20030;-75
2021/09/13 03:14:15;;;;;;;0.00;0.00;;;16.50;99.90;;;;;;4994115;28;20022;-76
2021/09/13 03:16:41;;;;;;;0.30;0.17;;;16.40;99.90;;;;;;4994206;28;20513;-76
2021/09/13 03:19:06;;;;;;;0.82;0.45;;;16.40;99.90;;;;;;4994341;28;20401;-76
2021/09/13 03:21:32;;;;;;;1.73;0.52;;;16.40;99.90;;;;;;4994326;28;20018;-76
2021/09/13 03:23:58;;;;;;;0.00;0.00;;;16.40;99.90;;;;;;4992731;28;20026;-76
2021/09/13 03:26:23;;;;;;;0.40;0.38;;;16.40;99.90;;;;;;4993985;28;20022;-76
2021/09/13 03:28:49;;;;;;;0.70;0.63;;;16.40;99.90;;;;;;4992814;28;20065;-76
2021/09/13 03:31:14;;;;;;;1.55;0.30;;;16.40;99.90;;;;;;4993481;28;20018;-76
2021/09/13 03:33:40;;;;;;;1.00;0.90;;;16.40;99.90;;;;;;4993839;28;20455;-76
2021/09/13 03:36:06;;;;;;;0.80;0.80;;;16.40;99.90;;;;;;4992642;28;20493;-75
2021/09/13 03:38:32;;;;;;;0.50;0.35;;;16.40;99.90;;;;;;4994246;28;20046;-75
2021/09/13 03:40:58;;;;;;;1.35;0.45;;;16.40;99.90;;;;;;5006793;28;20028;-76
2021/09/13 03:43:24;;;;;;;0.10;0.10;;;16.40;99.90;;;;;;5012068;28;20484;-76
2021/09/13 03:45:50;;;;;;;0.30;0.30;;;16.40;99.90;;;;;;5013219;28;20030;-76
2021/09/13 03:48:16;;;;;;;0.43;0.40;;;16.40;99.90;;;;;;5012965;28;20401;-76
2021/09/13 03:50:42;;;;;;;0.10;0.08;;;16.30;99.90;;;;;;5004698;28;20022;-76
2021/09/13 03:53:07;;;;;;;0.05;0.05;;;16.30;99.90;;;;;;4993478;28;20080;-76
2021/09/13 03:55:36;;;;;;;0.40;0.40;;;16.30;99.90;;;;;;4993506;28;20038;-76
2021/09/13 03:58:05;;;;;;;0.30;0.30;;;16.20;99.90;;;;;;4992274;28;20583;-76
2021/09/13 04:00:32;;;;;;;0.05;0.05;;;16.20;99.90;;;;;;4992678;28;20029;-76
2021/09/13 04:02:57;;;;;;;0.32;0.32;;;16.20;99.90;;;;;;4993736;28;20034;-76
2021/09/13 04:05:25;;;;;;;0.55;0.40;;;16.20;99.90;;;;;;4992349;28;20092;-76
2021/09/13 04:13:07;;;;;;;0.68;0.55;;;16.00;99.90;;;;;;4991971;28;20034;-76
2021/09/13 04:15:34;;;;;;;0.25;0.25;;;16.00;99.90;;;;;;4993212;28;20504;-76
2021/09/13 04:18:00;;;;;;;0.80;0.80;;;15.90;99.90;;;;;;4993428;28;20038;-76
2021/09/13 04:20:25;;;;;;;3.40;0.73;;;15.80;99.90;;;;;;4993418;28;20023;-76
2021/09/13 04:22:51;;;;;;;1.08;1.00;;;15.70;99.90;;;;;;4993603;28;20422;-76
2021/09/13 04:25:17;;;;;;;0.90;0.90;;;15.70;99.90;;;;;;4992998;28;20057;-76
2021/09/13 04:27:42;;;;;;;1.58;1.35;;;15.60;99.90;;;;;;4993293;28;20404;-76
2021/09/13 04:30:08;;;;;;;0.60;0.60;;;15.60;99.90;;;;;;4993136;28;20455;-76
2021/09/13 04:32:34;;;;;;;0.88;0.88;;;15.70;99.90;;;;;;4991881;28;20104;-76
2021/09/13 04:35:00;;;;;;;2.65;0.90;;;15.60;99.90;;;;;;4992106;28;20485;-76
2021/09/13 04:37:25;;;;;;;3.25;1.60;;;15.70;99.90;;;;;;4993013;28;20110;-76
2021/09/13 04:39:51;;;;;;;0.20;0.20;;;15.70;99.90;;;;;;4992735;28;20473;-76
2021/09/13 04:42:17;;;;;;;0.40;0.32;;;15.70;99.90;;;;;;4993276;28;20061;-76
2021/09/13 04:44:42;;;;;;;0.77;0.17;;;15.70;99.90;;;;;;4992796;28;20089;-76
2021/09/13 04:47:08;;;;;;;9.23;0.55;;;15.70;99.90;;;;;;4993047;28;20096;-76
2021/09/13 04:49:34;;;;;;;0.75;0.75;;;15.70;99.90;;;;;;4993018;28;20429;-76
2021/09/13 04:51:59;;;;;;;0.10;0.10;;;15.80;99.90;;;;;;5011997;28;20034;-76
2021/09/13 04:54:25;;;;;;;0.05;0.05;;;15.80;99.90;;;;;;5011236;28;20495;-75
2021/09/13 04:56:50;;;;;;;0.75;0.30;;;15.70;99.90;;;;;;5011213;28;20036;-76
2021/09/13 04:59:16;;;;;;;0.20;0.20;;;15.70;99.90;;;;;;5001370;28;20022;-76
2021/09/13 05:01:42;;;;;;;1.20;1.10;;;15.60;99.90;;;;;;4992135;28;20393;-76
2021/09/13 05:04:09;;;;;;;0.63;0.30;;;15.50;99.90;;;;;;4992838;28;20093;-76
2021/09/13 05:06:37;;;;;;;0.35;0.35;;;15.50;99.90;;;;;;4993323;28;20046;-76
2021/09/13 05:09:03;;;;;;;0.30;0.30;;;15.50;99.90;;;;;;4996564;28;20021;-76
2021/09/13 05:11:28;;;;;;;0.35;0.20;;;15.40;99.90;;;;;;4996442;28;20553;-76
2021/09/13 05:13:54;;;;;;;1.55;0.52;;;15.40;99.90;;;;;;4995974;28;20147;-76
2021/09/13 05:16:20;;;;;;;1.05;0.47;;;15.40;99.90;;;;;;4994862;28;20031;-76
2021/09/13 05:18:46;;;;;;;0.17;0.17;;;15.40;99.90;;;;;;4978720;28;20065;-76
2021/09/13 05:21:13;;;;;;;0.10;0.10;;;15.30;99.90;;;;;;4996558;28;20081;-76
2021/09/13 05:23:39;;;;;;;0.38;0.38;;;15.40;99.90;;;;;;4996545;28;20516;-76
2021/09/13 05:26:05;;;;;;;0.05;0.00;;;15.40;99.90;;;;;;4996440;28;20034;-76
2021/09/13 05:28:31;;;;;;;1.08;0.73;;;15.50;99.90;;;;;;4995967;28;20030;-74
2021/09/13 05:30:57;;;;;;;0.10;0.10;;;15.50;99.90;;;;;;4995764;28;20026;-76
2021/09/13 05:33:22;;;;;;;0.15;0.10;;;15.50;99.90;;;;;;4994930;28;20394;-76
2021/09/13 05:35:48;;;;;;;0.30;0.20;;;15.60;99.90;;;;;;4996120;28;20029;-76
2021/09/13 05:38:14;;;;;;;0.32;0.13;;;15.60;99.90;;;;;;4993927;28;20113;-76
2021/09/13 05:40:41;;;;;;;0.75;0.57;;;15.70;99.90;;;;;;4995376;28;20026;-76
2021/09/13 05:43:07;;;;;;;6.63;1.17;;;15.80;99.90;;;;;;4993577;28;20049;-76
2021/09/13 05:45:34;;;;;;;0.20;0.20;;;15.90;99.90;;;;;;4995623;28;20472;-76
2021/09/13 05:48:01;;;;;;;0.00;0.00;;;16.00;99.90;;;;;;4995915;28;20065;-76
2021/09/13 05:50:26;;;;;;;0.45;0.45;;;16.00;99.90;;;;;;4994458;28;20030;-76
2021/09/13 05:52:53;;;;;;;1.40;0.55;;;16.10;99.90;;;;;;4995237;28;20030;-76
2021/09/13 05:55:21;;;;;;;4.38;0.32;;;16.10;99.90;;;;;;4995311;28;20018;-76
2021/09/13 05:57:46;;;;;;;0.08;0.08;;;16.10;99.90;;;;;;4996281;28;20461;-76
2021/09/13 06:00:13;;;;;;;0.38;0.38;;;16.20;99.90;;;;;;4995070;28;20113;-76
2021/09/13 06:02:38;;;;;;;0.30;0.30;;;16.30;99.90;;;;;;4995491;28;20111;-75
2021/09/13 06:05:05;;;;;;;0.63;0.63;;;16.30;99.90;;;;;;4993793;28;20189;-75
2021/09/13 06:07:30;;;;;;;1.40;0.50;;;16.40;99.90;;;;;;4994325;28;20395;-75
2021/09/13 06:09:56;;;;;;;0.10;0.10;;;16.40;99.90;;;;;;5005228;28;20036;-75
2021/09/13 06:12:21;;;;;;;0.22;0.22;;;16.40;99.90;;;;;;4996959;28;20034;-75
2021/09/13 06:14:47;;;;;;;0.43;0.40;;;16.50;99.90;;;;;;5001358;28;20034;-75
2021/09/13 06:17:13;;;;;;;0.52;0.30;;;16.50;99.90;;;;;;4993938;28;20101;-75
2021/09/13 06:19:39;;;;;;;0.60;0.60;;;16.60;99.90;;;;;;4999148;28;20380;-75
2021/09/13 06:22:05;;;;;;;0.38;0.20;;;16.60;99.90;;;;;;5002160;28;20031;-75
2021/09/13 06:24:31;;;;;;;0.70;0.70;;;16.70;99.90;;;;;;4992062;28;20395;-75
2021/09/13 06:26:57;;;;;;;0.20;0.20;;;16.70;99.90;;;;;;4996562;28;20034;-75
2021/09/13 06:29:23;;;;;;;2.65;0.43;;;16.70;99.90;;;;;;4992018;28;20436;-75
2021/09/13 06:31:49;;;;;;;0.20;0.15;;;16.80;99.90;;;;;;4996565;28;20026;-75
2021/09/13 06:34:17;;;;;;;0.43;0.43;;;16.80;99.90;;;;;;4991563;28;20034;-75
2021/09/13 06:36:44;;;;;;;0.65;0.32;;;16.90;99.90;;;;;;4986823;28;20022;-74
2021/09/13 06:39:10;;;;;;;0.60;0.60;;;16.90;99.90;;;;;;4986904;28;20034;-75
2021/09/13 06:41:36;;;;;;;0.63;0.47;;;17.00;99.90;;;;;;4993144;28;20433;-76
2021/09/13 06:44:03;;;;;;;0.00;0.00;;;17.10;99.90;;;;;;4999724;28;20081;-75
2021/09/13 06:49:07;;;;;;;0.40;0.40;;;17.30;99.90;;;;;;5000573;28;20041;-75
2021/09/13 06:51:33;;;;;;;0.30;0.30;;;17.40;99.90;;;;;;5002944;28;20033;-76
2021/09/13 06:53:59;;;;;;;0.22;0.22;;;17.40;99.90;;;;;;4990451;28;20031;-76
2021/09/13 06:56:25;;;;;;;0.10;0.10;;;17.50;99.90;;;;;;4990624;28;20124;-76
2021/09/13 06:58:52;;;;;;;0.40;0.28;;;17.50;99.90;;;;;;4989863;28;20126;-76
2021/09/13 07:01:21;;;;;;;0.00;0.00;;;17.50;99.90;;;;;;4989995;28;20049;-77
2021/09/13 07:03:48;;;;;;;1.17;0.50;;;17.60;99.90;;;;;;4994614;28;20062;-77
2021/09/13 07:06:13;;;;;;;0.75;0.63;;;17.60;99.90;;;;;;4983980;28;20037;-77
2021/09/13 07:08:39;;;;;;;0.30;0.30;;;17.60;99.90;;;;;;4993012;28;20026;-77
2021/09/13 07:11:06;;;;;;;2.28;1.02;;;17.70;99.90;;;;;;4995460;28;20025;-77
2021/09/13 07:13:32;;;;;;;0.60;0.60;;;17.70;99.90;;;;;;4997204;28;20034;-77
2021/09/13 07:15:57;;;;;;;0.93;0.47;;;17.90;99.90;;;;;;4993801;28;20019;-77
2021/09/13 07:18:23;;;;;;;1.00;0.32;;;18.00;99.90;;;;;;4990036;28;20077;-77
2021/09/13 07:20:49;;;;;;;0.32;0.25;;;18.00;99.90;;;;;;5000720;28;20504;-78
2021/09/13 07:23:14;;;;;;;1.08;0.73;;;18.10;99.90;;;;;;5003122;28;20033;-76
2021/09/13 07:25:40;;;;;;;4.95;0.43;;;18.20;99.90;;;;;;4998903;28;20034;-75
2021/09/13 07:28:06;;;;;;;0.10;0.10;;;18.30;99.90;;;;;;4990536;28;20068;-76
2021/09/13 07:30:31;;;;;;;0.30;0.30;;;18.50;99.90;;;;;;4994332;28;20032;-76
2021/09/13 07:32:59;;;;;;;0.93;0.55;;;18.60;99.90;;;;;;4990894;28;20098;-76
2021/09/13 07:35:24;;;;;;;0.10;0.10;;;18.80;99.90;;;;;;4999538;28;20022;-76
2021/09/13 07:37:50;;;;;;;1.95;0.40;;;19.00;99.90;;;;;;5003467;28;20030;-77
2021/09/13 07:40:16;;;;;;;1.23;0.77;;;19.10;99.90;;;;;;4991507;28;20026;-77
2021/09/13 07:42:43;;;;;;;1.17;0.90;;;19.40;99.90;;;;;;4993981;28;20371;-78
2021/09/13 07:45:09;;;;;;;0.20;0.20;;;19.60;99.90;;;;;;4993052;28;20050;-77
2021/09/13 07:47:35;;;;;;;0.60;0.47;;;19.90;99.90;;;;;;4992944;28;20043;-77
2021/09/13 07:50:01;;;;;;;0.20;0.20;;;20.80;99.90;;;;;;4994371;28;20049;-80
2021/09/13 07:52:27;;;;;;;0.73;0.35;;;21.90;99.90;;;;;;4988161;28;20038;-77
2021/09/13 07:54:53;;;;;;;0.52;0.52;;;23.10;98.80;;;;;;4992985;28;20029;-77
2021/09/13 07:57:19;;;;;;;0.43;0.43;;;24.00;96.90;;;;;;4999248;28;20045;-77
2021/09/13 07:59:44;;;;;;;0.45;0.45;;;23.80;96.80;;;;;;4988981;28;20023;-78
2021/09/13 08:02:12;;;;;;;1.65;0.88;;;24.00;96.70;;;;;;4989981;28;20034;-78
2021/09/13 08:04:38;;;;;;;0.32;0.32;;;25.00;95.30;;;;;;4996480;28;20061;-78
2021/09/13 08:07:04;;;;;;;0.15;0.15;;;25.50;94.50;;;;;;4990551;28;20464;-78
2021/09/13 08:09:30;;;;;;;0.60;0.45;;;25.40;94.20;;;;;;4999414;28;20028;-78
2021/09/13 08:11:56;;;;;;;0.30;0.30;;;25.40;94.20;;;;;;5003768;28;20362;-78
2021/09/13 08:14:21;;;;;;;0.52;0.50;;;24.80;94.60;;;;;;4987551;28;20054;-77
2021/09/13 08:16:47;;;;;;;0.65;0.35;;;24.10;95.40;;;;;;4988416;28;20062;-77
2021/09/13 08:19:13;;;;;;;1.10;1.05;;;24.20;95.60;;;;;;4990291;28;20030;-77
2021/09/13 08:21:41;;;;;;;0.35;0.35;;;24.60;95.20;;;;;;4992546;28;20030;-77
2021/09/13 08:24:07;;;;;;;1.98;0.75;;;25.40;94.00;;;;;;4998207;28;20054;-77
2021/09/13 08:26:34;;;;;;;1.27;1.10;;;25.60;93.60;;;;;;5001933;28;20054;-78
2021/09/13 08:29:00;;;;;;;0.55;0.55;;;25.30;93.60;;;;;;4992881;28;20028;-78
2021/09/13 08:31:25;;;;;;;0.20;0.20;;;24.70;94.20;;;;;;4983486;28;20048;-79
2021/09/13 08:33:51;;;;;;;1.58;0.40;;;24.90;94.00;;;;;;4988830;28;20042;-78
2021/09/13 08:36:17;;;;;;;0.85;0.85;;;27.00;92.50;;;;;;4985062;28;20021;-78
2021/09/13 08:38:43;;;;;;;0.60;0.60;;;29.40;89.10;;;;;;4995252;28;20093;-77
2021/09/13 08:41:09;;;;;;;2.15;1.23;;;31.20;84.20;;;;;;4988416;28;20080;-77
2021/09/13 08:43:35;;;;;;;0.43;0.43;;;32.60;80.10;;;;;;4993241;28;20089;-75
2021/09/13 08:46:07;;;;;;;0.25;0.25;;;33.30;77.00;;;;;;4991262;28;20030;-75
2021/09/13 08:48:47;;;;;;;1.08;0.55;;;31.50;77.80;;;;;;4992017;28;20421;-76
2021/09/13 08:53:43;;;;;;;0.73;0.73;;;29.80;81.40;;;;;;4988943;28;20042;-77
2021/09/13 08:56:14;;;;;;;0.32;0.32;;;29.10;82.40;;;;;;4987152;28;20445;-78
2021/09/13 08:58:41;;;;;;;0.47;0.47;;;29.00;82.50;;;;;;4994539;28;20026;-79
2021/09/13 09:01:07;;;;;;;2.72;1.15;;;28.30;83.50;;;;;;4990196;28;20034;-78
2021/09/13 09:03:37;;;;;;;0.52;0.52;;;27.70;86.30;;;;;;4991338;28;20456;-78
2021/09/13 09:06:03;;;;;;;0.50;0.50;;;27.20;87.40;;;;;;4992585;28;20100;-79
2021/09/13 09:08:31;;;;;;;0.40;0.40;;;27.10;88.10;;;;;;4993742;28;20029;-79
2021/09/13 09:11:03;;;;;;;1.38;0.75;;;28.00;85.90;;;;;;4992626;28;20034;-80
2021/09/13 09:13:42;;;;;;;4.72;1.00;;;30.20;82.80;;;;;;4995324;28;20030;-78
2021/09/13 09:16:09;;;;;;;0.77;0.77;;;32.10;78.70;;;;;;4990834;28;20026;-76
2021/09/13 09:18:48;;;;;;;0.77;0.77;;;33.10;76.00;;;;;;4992797;28;20393;-76
2021/09/13 09:21:30;;;;;;;0.50;0.50;;;33.60;75.20;;;;;;4993500;28;20477;-75
2021/09/13 09:24:04;;;;;;;0.63;0.63;;;33.30;74.10;;;;;;5004781;28;20022;-76
2021/09/13 09:26:30;;;;;;;0.55;0.55;;;32.70;75.50;;;;;;4994224;28;20093;-76
2021/09/13 09:28:58;;;;;;;0.40;0.40;;;33.20;75.00;;;;;;4996658;28;20512;-76
2021/09/13 09:31:43;;;;;;;0.77;0.63;;;33.30;75.10;;;;;;4994675;28;20405;-77
2021/09/13 09:34:16;;;;;;;0.63;0.63;;;32.40;73.50;;;;;;4993660;28;20032;-76
2021/09/13 09:37:05;;;;;;;0.60;0.60;;;32.70;73.60;;;;;;4997538;28;20065;-75
2021/09/13 09:39:35;;;;;;;0.60;0.60;;;33.10;73.10;;;;;;5008530;28;20100;-76
2021/09/13 09:42:02;;;;;;;1.67;0.50;;;33.50;70.90;;;;;;4987314;28;20448;-76
2021/09/13 09:44:28;;;;;;;0.50;0.50;;;34.10;69.70;;;;;;4991982;28;20050;-75
2021/09/13 09:47:07;;;;;;;2.42;1.10;;;34.00;69.90;;;;;;4993106;28;20094;-75
2021/09/13 09:49:53;;;;;;;0.75;0.75;;;33.70;69.80;;;;;;4993219;28;20023;-76
2021/09/13 09:52:34;;;;;;;1.08;0.63;;;32.80;71.40;;;;;;4986537;28;20406;-75
2021/09/13 09:55:19;;;;;;;0.40;0.40;;;32.20;73.10;;;;;;4986769;28;20029;-75
2021/09/13 09:58:10;;;;;;;0.30;0.30;;;31.60;73.80;;;;;;4996645;28;20023;-75
2021/09/13 10:00:37;;;;;;;0.47;0.47;;;31.30;74.20;;;;;;4992565;28;20144;-78
2021/09/13 10:03:04;;;;;;;0.20;0.20;;;30.90;74.70;;;;;;4994195;28;20026;-78
2021/09/13 10:05:30;;;;;;;0.30;0.30;;;30.60;73.90;;;;;;5005082;28;20112;-77
2021/09/13 10:07:56;;;;;;;0.40;0.40;;;30.60;74.70;;;;;;4991112;28;20505;-77
2021/09/13 10:10:28;;;;;;;0.30;0.30;;;30.50;74.10;;;;;;4989877;28;20060;-77
2021/09/13 10:12:54;;;;;;;0.30;0.30;;;30.30;73.30;;;;;;4995071;28;20063;-77
2021/09/13 10:15:20;;;;;;;0.43;0.43;;;30.20;73.80;;;;;;4997598;28;20468;-77
2021/09/13 10:17:47;;;;;;;1.10;0.68;;;30.30;71.60;;;;;;4991611;28;20022;-76
2021/09/13 10:20:13;;;;;;;0.30;0.30;;;30.30;72.60;;;;;;4993790;28;20023;-77
2021/09/13 10:22:45;;;;;;;0.80;0.55;;;30.30;72.00;;;;;;4993666;28;20030;-77
2021/09/13 10:25:12;;;;;;;0.20;0.20;;;30.40;72.00;;;;;;4990906;28;20169;-76
2021/09/13 10:27:40;;;;;;;0.20;0.20;;;30.30;71.10;;;;;;4991813;28;20064;-76
2021/09/13 10:30:14;;;;;;;0.60;0.57;;;30.20;71.80;;;;;;4996875;28;20026;-77
2021/09/13 10:32:42;;;;;;;0.43;0.40;;;30.10;72.50;;;;;;4993277;28;20049;-76
2021/09/13 10:35:13;;;;;;;0.20;0.20;;;30.20;72.20;;;;;;4992326;28;20038;-76
2021/09/13 10:37:45;;;;;;;0.38;0.38;;;30.40;72.30;;;;;;4996622;28;20018;-76
2021/09/13 10:40:25;;;;;;;0.50;0.50;;;30.40;73.40;;;;;;4994140;28;20567;-76
2021/09/13 10:42:58;;;;;;;0.25;0.25;;;30.40;72.60;;;;;;5000340;28;20034;-77
2021/09/13 10:45:24;;;;;;;0.30;0.30;;;30.40;72.50;;;;;;4998877;28;20034;-77
2021/09/13 10:47:59;;;;;;;0.35;0.20;;;30.30;71.80;;;;;;4989839;28;20041;-78
2021/09/13 10:50:44;;;;;;;0.52;0.50;;;30.10;72.00;;;;;;4992525;28;20038;-77
2021/09/13 10:53:22;;;;;;;0.45;0.45;;;29.90;72.50;;;;;;4992462;28;20613;-75
2021/09/13 10:55:50;;;;;;;0.25;0.25;;;30.20;73.40;;;;;;4993582;28;20035;-78
2021/09/13 10:58:33;;;;;;;0.35;0.35;;;30.40;71.60;;;;;;4993361;28;20409;-76
2021/09/13 11:01:03;;;;;;;0.17;0.17;;;30.50;72.00;;;;;;4989998;28;20022;-76
2021/09/13 11:03:31;;;;;;;0.52;0.40;;;30.60;70.90;;;;;;4990225;28;20022;-75
2021/09/13 11:06:06;;;;;;;0.82;0.45;;;30.50;70.50;;;;;;4992121;28;20026;-76
2021/09/13 11:08:42;;;;;;;0.77;0.30;;;30.70;70.60;;;;;;4990427;28;20053;-75
2021/09/13 11:11:19;;;;;;;0.30;0.30;;;30.60;71.10;;;;;;4986212;28;20062;-75
2021/09/13 11:13:57;;;;;;;0.22;0.20;;;30.50;71.10;;;;;;4998996;28;20104;-75
2021/09/13 11:16:24;;;;;;;0.60;0.60;;;30.70;70.80;;;;;;4988581;28;20022;-75
2021/09/13 11:18:50;;;;;;;0.75;0.63;;;30.50;70.30;;;;;;4992050;28;20032;-79
2021/09/13 11:21:18;;;;;;;0.55;0.55;;;30.30;71.00;;;;;;4991609;28;20019;-76
2021/09/13 11:23:56;;;;;;;0.38;0.38;;;30.20;72.10;;;;;;4991364;28;20030;-75
2021/09/13 11:26:35;;;;;;;0.88;0.80;;;30.50;72.50;;;;;;4991374;28;20048;-75
2021/09/13 11:29:08;;;;;;;1.25;0.63;;;30.40;72.00;;;;;;4991954;28;20046;-75
2021/09/13 11:31:56;;;;;;;0.38;0.20;;;30.30;73.10;;;;;;4989789;28;20062;-75
2021/09/13 11:34:46;;;;;;;0.80;0.68;;;30.60;72.00;;;;;;4986314;28;20037;-75
2021/09/13 11:37:18;;;;;;;0.55;0.35;;;30.70;73.00;;;;;;4980800;28;20044;-74
2021/09/13 11:39:47;;;;;;;0.20;0.20;;;31.00;72.30;;;;;;4985476;28;20458;-75
2021/09/13 11:42:16;;;;;;;0.28;0.28;;;31.30;71.70;;;;;;4984465;28;20077;-75
2021/09/13 11:44:57;;;;;;;1.13;0.30;;;31.30;73.10;;;;;;4989260;28;20050;-75
2021/09/13 11:47:28;;;;;;;2.13;0.38;;;31.30;72.90;;;;;;4989497;28;20030;-75
2021/09/13 11:49:57;;;;;;;0.30;0.30;;;30.90;72.70;;;;;;5001648;28;20522;-75
2021/09/13 11:52:33;;;;;;;0.47;0.47;;;31.20;72.50;;;;;;4984992;28;20030;-75
2021/09/13 11:55:10;;;;;;;0.28;0.25;;;31.20;72.80;;;;;;4986097;28;20026;-75
2021/09/13 11:57:50;;;;;;;0.20;0.20;;;31.50;73.70;;;;;;4999809;28;20019;-75
2021/09/13 12:00:28;;;;;;;0.80;0.60;;;31.50;72.60;;;;;;4991530;28;20027;-76
2021/09/13 12:03:00;;;;;;;0.40;0.40;;;31.50;72.50;;;;;;4989634;28;20032;-76
2021/09/13 12:05:36;;;;;;;1.30;0.63;;;31.50;73.50;;;;;;4988851;28;20030;-76
2021/09/13 12:08:05;;;;;;;0.38;0.38;;;31.40;73.70;;;;;;4986140;28;20480;-76
2021/09/13 12:10:36;;;;;;;0.50;0.40;;;31.30;73.70;;;;;;4988133;28;20027;-76
2021/09/13 12:13:16;;;;;;;1.27;0.73;;;31.10;73.80;;;;;;4999869;28;20061;-74
2021/09/13 12:15:51;;;;;;;0.65;0.30;;;31.00;73.80;;;;;;4995353;28;20026;-75
2021/09/13 12:18:18;;;;;;;0.98;0.88;;;31.00;74.20;;;;;;4992831;28;20097;-74
2021/09/13 12:20:45;;;;;;;0.20;0.20;;;30.90;74.60;;;;;;4989024;28;20046;-75
2021/09/13 12:23:32;;;;;;;0.10;0.10;;;31.20;74.30;;;;;;4995613;28;20393;-76
2021/09/13 12:26:03;;;;;;;0.32;0.32;;;31.40;74.50;;;;;;4994103;28;20054;-76
2021/09/13 12:28:33;;;;;;;0.75;0.50;;;31.40;74.30;;;;;;4989107;28;20121;-74
2021/09/13 12:31:07;;;;;;;0.63;0.63;;;31.40;74.10;;;;;;4988890;28;20023;-75
2021/09/13 12:33:51;;;;;;;0.47;0.47;;;31.50;74.80;;;;;;4987794;28;20073;-75
2021/09/13 12:36:22;;;;;;;0.50;0.50;;;31.30;74.40;;;;;;4988214;28;20023;-75
2021/09/13 12:38:52;;;;;;;0.57;0.55;;;31.00;74.60;;;;;;4991473;28;20083;-75
2021/09/13 12:41:39;;;;;;;0.60;0.60;;;31.10;75.00;;;;;;4988111;28;20402;-74
2021/09/13 12:44:21;;;;;;;0.40;0.30;;;31.40;74.70;;;;;;4989530;28;20050;-75
2021/09/13 12:46:55;;;;;;;1.08;0.35;;;31.30;74.30;;;;;;4995567;28;20023;-75
2021/09/13 12:49:22;;;;;;;1.95;0.60;;;31.50;74.10;;;;;;4994475;28;20053;-75
2021/09/13 12:52:02;;;;;;;0.40;0.30;;;31.80;74.20;;;;;;4992039;28;20037;-75
2021/09/13 12:54:38;;;;;;;0.30;0.30;;;31.70;73.80;;;;;;4991339;28;20081;-75
2021/09/13 12:57:06;;;;;;;0.60;0.57;;;31.50;73.70;;;;;;5000659;28;20576;-75
2021/09/13 12:59:33;;;;;;;0.55;0.40;;;31.30;73.80;;;;;;4992545;28;20109;-76
2021/09/13 13:01:59;;;;;;;0.30;0.30;;;31.30;75.30;;;;;;4988527;28;20062;-75
2021/09/13 13:04:38;;;;;;;0.88;0.40;;;31.40;74.50;;;;;;4987887;28;20548;-75